This is the latest recevied weather packets stored in our database for station/object OK1CBR-13. If no packets are shown the sender has not sent any weather packets the latest 10 day(s).
| Time | Temp. | Humidity | Pressure | Rain* | Wind** | Luminosity | Snow |
|---|---|---|---|---|---|---|---|
| 1778077653 | 25.56° C | 36% | 1005.6 hPa | - | - | - | - |
| 1778077054 | 26.11° C | 35% | 1005.6 hPa | - | - | - | - |
| 1778076453 | 26.67° C | 36% | 1005.7 hPa | - | - | - | - |
| 1778075853 | 26.11° C | 36% | 1005.7 hPa | - | - | - | - |
| 1778075253 | 25° C | 37% | 1005.9 hPa | - | - | - | - |
| 1778074653 | 25° C | 37% | 1006 hPa | - | - | - | - |
| 1778074053 | 25.56° C | 37% | 1006.1 hPa | - | - | - | - |
| 1778073453 | 25.56° C | 37% | 1006.4 hPa | - | - | - | - |
| 1778072853 | 24.44° C | 40% | 1006.5 hPa | - | - | - | - |
| 1778072253 | 24.44° C | 39% | 1006.6 hPa | - | - | - | - |
| 1778071653 | 23.33° C | 42% | 1006.7 hPa | - | - | - | - |
| 1778071053 | 22.78° C | 44% | 1007 hPa | - | - | - | - |
| 1778070453 | 23.89° C | 41% | 1007.2 hPa | - | - | - | - |
| 1778069853 | 23.33° C | 42% | 1007.2 hPa | - | - | - | - |
| 1778069253 | 22.78° C | 42% | 1007.2 hPa | - | - | - | - |
| 1778068653 | 23.33° C | 41% | 1007.3 hPa | - | - | - | - |
| 1778068053 | 24.44° C | 41% | 1007.4 hPa | - | - | - | - |
| 1778067453 | 23.33° C | 43% | 1007.5 hPa | - | - | - | - |
| 1778066853 | 23.33° C | 44% | 1007.7 hPa | - | - | - | - |
| 1778066253 | 22.78° C | 44% | 1007.7 hPa | - | - | - | - |
| 1778065653 | 22.22° C | 49% | 1007.8 hPa | - | - | - | - |
| 1778065053 | 21.67° C | 50% | 1007.8 hPa | - | - | - | - |
| 1778064453 | 21.67° C | 49% | 1007.9 hPa | - | - | - | - |
| 1778063853 | 21.11° C | 51% | 1007.9 hPa | - | - | - | - |
| 1778063253 | 21.11° C | 53% | 1008.1 hPa | - | - | - | - |
* Rain since midnight (hover to see other rain measurements)
** Current wind speed in m/s (hover to see current wind gust speed)